Time;durP1;ratioP1;P1;durP2;ratioP2;P2;SDS_P1;SDS_P2;PMS_P1;PMS_P2;Temp;Humidity;BMP_temperature;BMP_pressure;BME280_temperature;BME280_humidity;BME280_pressure;Samples;Min_cycle;Max_cycle;Signal;HPM_P1;HPM_P2
2023/06/14 00:00:14;;;;;;;6.68;4.40;;;;;;;25.54;29.60;101307.00;6199783;23;20021;-62
2023/06/14 00:02:43;;;;;;;6.55;4.07;;;;;;;25.50;29.73;101306.81;6200280;23;20024;-62
2023/06/14 00:05:12;;;;;;;6.00;3.83;;;;;;;25.48;29.68;101311.00;6199889;23;20017;-62
2023/06/14 00:07:43;;;;;;;7.78;4.57;;;;;;;25.44;29.58;101296.22;6200159;23;20028;-62
2023/06/14 00:10:11;;;;;;;8.88;3.85;;;;;;;25.43;29.88;101303.69;6199463;23;20498;-62
2023/06/14 00:12:40;;;;;;;7.20;3.60;;;;;;;25.41;29.88;101305.09;6199094;23;20028;-61
2023/06/14 00:15:10;;;;;;;5.97;4.22;;;;;;;25.37;29.60;101301.34;6199321;23;20017;-62
2023/06/14 00:17:38;;;;;;;6.82;4.10;;;;;;;25.34;29.75;101299.22;6200263;23;20064;-63
2023/06/14 00:20:07;;;;;;;7.72;4.22;;;;;;;25.34;29.83;101315.72;6199440;23;20100;-61
2023/06/14 00:22:36;;;;;;;8.48;3.90;;;;;;;25.30;30.10;101313.59;6200229;23;20351;-61
2023/06/14 00:25:05;;;;;;;8.02;3.70;;;;;;;25.28;30.00;101318.59;6200255;23;20035;-61
2023/06/14 00:27:53;;;;;;;5.75;4.20;;;;;;;25.26;29.79;101311.78;6198916;23;20032;-62
2023/06/14 00:30:22;;;;;;;7.30;3.90;;;;;;;25.24;29.90;101317.59;6199303;23;20024;-62
2023/06/14 00:32:51;;;;;;;5.35;3.92;;;;;;;25.22;29.93;101316.25;6199589;23;20048;-61
2023/06/14 00:35:19;;;;;;;7.65;4.38;;;;;;;25.20;29.91;101313.00;6199805;23;20017;-63
2023/06/14 00:37:47;;;;;;;8.02;4.43;;;;;;;25.19;29.61;101314.13;6199869;23;20024;-61
2023/06/14 00:40:15;;;;;;;7.80;4.20;;;;;;;25.16;29.71;101309.25;6198663;23;20025;-62
2023/06/14 00:42:43;;;;;;;7.82;4.10;;;;;;;25.15;29.82;101316.69;6199215;23;20031;-62
2023/06/14 00:45:11;;;;;;;6.15;4.22;;;;;;;25.12;29.99;101317.28;6199440;23;20021;-62
2023/06/14 00:47:43;;;;;;;6.28;3.90;;;;;;;25.11;29.78;101321.16;6199415;23;20051;-61
2023/06/14 00:50:12;;;;;;;6.28;4.22;;;;;;;25.09;29.71;101315.16;6199081;23;20024;-63
2023/06/14 00:52:40;;;;;;;5.82;4.20;;;;;;;25.08;30.07;101318.22;6199900;23;20053;-62
2023/06/14 00:55:09;;;;;;;7.60;3.67;;;;;;;25.06;29.84;101317.72;6199351;23;20025;-61
2023/06/14 00:57:39;;;;;;;7.70;4.30;;;;;;;25.02;30.13;101317.50;6199162;23;20068;-62
2023/06/14 01:00:09;;;;;;;6.78;3.53;;;;;;;24.97;30.08;101315.69;6199315;23;20025;-61
2023/06/14 01:02:38;;;;;;;7.80;4.55;;;;;;;24.98;30.04;101316.50;6199308;23;20025;-62
2023/06/14 01:05:09;;;;;;;5.95;3.83;;;;;;;24.87;30.07;101296.63;6199602;23;20348;-62
2023/06/14 01:08:00;;;;;;;5.68;3.97;;;;;;;24.91;29.91;101316.88;6199739;23;20020;-62
2023/06/14 01:10:36;;;;;;;7.53;4.47;;;;;;;24.91;30.23;101316.06;6198914;23;20049;-62
2023/06/14 01:13:09;;;;;;;8.50;4.18;;;;;;;24.88;29.88;101319.44;6199070;23;20098;-62
2023/06/14 01:15:39;;;;;;;10.23;4.43;;;;;;;24.85;30.15;101306.28;6198995;23;20020;-61
2023/06/14 01:18:08;;;;;;;6.68;3.90;;;;;;;24.82;29.96;101317.91;6199660;23;20021;-61
2023/06/14 01:20:37;;;;;;;5.20;3.67;;;;;;;24.80;30.04;101328.41;6199383;23;20076;-62
2023/06/14 01:23:07;;;;;;;6.35;4.13;;;;;;;24.77;30.18;101326.25;6199896;23;20025;-62
2023/06/14 01:25:35;;;;;;;6.50;3.90;;;;;;;24.74;30.06;101315.88;6199562;23;20032;-61
2023/06/14 01:28:11;;;;;;;5.72;3.72;;;;;;;24.71;29.97;101321.97;6198447;23;20101;-61
2023/06/14 01:30:44;;;;;;;7.35;4.47;;;;;;;24.67;30.17;101317.09;6199045;23;20032;-62
2023/06/14 01:33:14;;;;;;;6.78;4.38;;;;;;;24.65;30.12;101313.00;6199712;23;20021;-63
2023/06/14 01:35:46;;;;;;;7.50;3.80;;;;;;;24.62;29.78;101317.19;6199090;23;20032;-63
2023/06/14 01:38:15;;;;;;;7.65;3.92;;;;;;;24.59;29.90;101314.25;6199469;23;20399;-63
2023/06/14 01:40:45;;;;;;;4.78;4.00;;;;;;;24.56;30.18;101325.84;6198302;23;20044;-62
2023/06/14 01:43:14;;;;;;;6.13;3.83;;;;;;;24.53;29.77;101320.94;6198180;23;20455;-61
2023/06/14 01:45:43;;;;;;;10.95;3.47;;;;;;;24.52;29.81;101324.81;6198997;23;20083;-61
2023/06/14 01:48:11;;;;;;;6.10;3.90;;;;;;;24.49;30.21;101317.19;6199007;23;20052;-62
2023/06/14 01:50:39;;;;;;;7.22;4.32;;;;;;;24.47;29.75;101319.41;6198871;23;20068;-62
2023/06/14 01:53:09;;;;;;;10.13;3.80;;;;;;;24.44;29.93;101314.53;6199098;23;20097;-61
2023/06/14 01:55:43;;;;;;;8.27;3.72;;;;;;;24.38;29.89;101307.50;6198691;23;20032;-62
2023/06/14 01:58:11;;;;;;;6.30;3.67;;;;;;;24.38;30.10;101319.31;6198645;23;20051;-62
2023/06/14 02:00:40;;;;;;;6.18;3.92;;;;;;;24.37;29.90;101314.09;6198355;23;20021;-61
2023/06/14 02:03:08;;;;;;;7.93;3.72;;;;;;;24.32;29.78;101307.59;6199253;23;20109;-61
2023/06/14 02:05:35;;;;;;;8.13;3.83;;;;;;;24.32;29.87;101312.28;6199134;23;20047;-62
2023/06/14 02:08:03;;;;;;;7.30;4.05;;;;;;;24.29;29.79;101312.88;6198709;23;20463;-62
2023/06/14 02:10:31;;;;;;;6.43;4.03;;;;;;;24.27;29.80;101315.09;6198197;23;20048;-61
2023/06/14 02:13:00;;;;;;;5.75;4.05;;;;;;;24.24;29.94;101312.97;6197996;23;20029;-60
2023/06/14 02:15:33;;;;;;;7.20;4.07;;;;;;;24.22;29.79;101317.94;6198291;23;20029;-61
2023/06/14 02:18:03;;;;;;;7.72;3.72;;;;;;;24.19;29.75;101311.13;6199141;23;20025;-62
2023/06/14 02:20:31;;;;;;;7.60;4.07;;;;;;;24.16;29.92;101313.66;6199117;23;20024;-61
2023/06/14 02:22:59;;;;;;;4.85;3.53;;;;;;;24.12;30.13;101316.19;6198912;23;20079;-61
2023/06/14 02:25:28;;;;;;;5.65;3.70;;;;;;;24.14;30.18;101322.19;6199052;23;20096;-62
2023/06/14 02:27:56;;;;;;;7.75;3.75;;;;;;;24.13;29.92;101325.25;6198440;23;20045;-62
2023/06/14 02:30:25;;;;;;;7.15;3.58;;;;;;;24.10;29.92;101323.09;6198430;23;20032;-62
2023/06/14 02:32:53;;;;;;;9.60;4.35;;;;;;;24.08;30.04;101325.34;6198397;23;20028;-60
2023/06/14 02:35:24;;;;;;;9.07;3.10;;;;;;;24.06;29.99;101328.38;6198858;23;20021;-62
2023/06/14 02:37:52;;;;;;;7.18;3.92;;;;;;;24.04;30.40;101319.63;6198432;23;20017;-61
2023/06/14 02:40:20;;;;;;;6.40;3.60;;;;;;;24.02;30.49;101336.41;6198428;23;20024;-62
2023/06/14 02:42:48;;;;;;;5.85;3.58;;;;;;;23.98;30.39;101329.88;6198174;23;20025;-62
2023/06/14 02:45:16;;;;;;;8.73;4.07;;;;;;;23.97;30.46;101335.69;6198176;23;20025;-62
2023/06/14 02:47:46;;;;;;;6.70;3.80;;;;;;;23.96;30.56;101331.31;6198478;23;20048;-62
2023/06/14 02:50:15;;;;;;;8.70;3.85;;;;;;;23.92;30.33;101328.34;6198729;23;20025;-62
2023/06/14 02:52:45;;;;;;;10.70;3.67;;;;;;;23.90;30.27;101330.56;6198972;23;20025;-62
2023/06/14 02:55:13;;;;;;;6.45;4.10;;;;;;;23.89;30.52;101333.59;6198807;23;20354;-62
2023/06/14 02:57:40;;;;;;;7.03;3.60;;;;;;;23.86;30.09;101332.28;6198064;23;20048;-61
2023/06/14 03:00:12;;;;;;;4.63;3.17;;;;;;;23.85;30.25;101333.38;6198225;23;20036;-61
2023/06/14 03:02:42;;;;;;;8.30;3.42;;;;;;;23.84;30.44;101328.19;6198324;23;20475;-62
2023/06/14 03:05:12;;;;;;;8.77;3.75;;;;;;;23.78;30.57;101330.22;6199004;23;20063;-61
2023/06/14 03:07:40;;;;;;;6.45;4.00;;;;;;;23.79;30.48;101342.81;6198474;23;20021;-61
2023/06/14 03:10:10;;;;;;;7.03;3.78;;;;;;;23.76;30.67;101342.59;6198008;23;20096;-61
2023/06/14 03:12:37;;;;;;;6.47;3.65;;;;;;;23.76;30.46;101342.59;6197453;23;20024;-58
2023/06/14 03:15:06;;;;;;;7.35;3.22;;;;;;;23.72;30.32;101344.31;6198137;23;20075;-61
2023/06/14 03:17:35;;;;;;;7.43;3.50;;;;;;;23.70;30.56;101355.59;6197500;23;20202;-61
2023/06/14 03:20:03;;;;;;;7.25;3.50;;;;;;;23.69;30.77;101356.69;6197377;23;20045;-61
2023/06/14 03:22:34;;;;;;;6.13;3.45;;;;;;;23.65;30.51;101353.72;6198155;23;20021;-62
2023/06/14 03:25:04;;;;;;;6.40;3.45;;;;;;;23.63;30.47;101350.47;6198701;23;20025;-62
2023/06/14 03:27:32;;;;;;;4.95;3.00;;;;;;;23.60;30.70;101353.00;6199175;23;20023;-61
2023/06/14 03:30:00;;;;;;;6.18;3.30;;;;;;;23.58;30.78;101350.53;6199722;23;20025;-61
2023/06/14 03:32:28;;;;;;;5.47;3.30;;;;;;;23.56;30.87;101349.22;6200169;23;20025;-61
2023/06/14 03:34:56;;;;;;;4.68;3.85;;;;;;;23.53;30.60;101356.06;6200358;23;20027;-61
2023/06/14 03:37:23;;;;;;;4.80;3.88;;;;;;;23.52;31.00;101357.19;6200156;23;20025;-61
2023/06/14 03:39:53;;;;;;;9.02;3.20;;;;;;;23.50;30.53;101364.91;6199431;23;20032;-61
2023/06/14 03:42:20;;;;;;;8.13;3.72;;;;;;;23.48;31.05;101358.88;6199393;23;20032;-62
2023/06/14 03:44:48;;;;;;;6.13;4.07;;;;;;;23.48;30.95;101363.56;6199796;23;20021;-62
2023/06/14 03:47:16;;;;;;;7.28;3.45;;;;;;;23.45;31.03;101361.41;6200297;23;20025;-61
2023/06/14 03:49:44;;;;;;;5.78;3.25;;;;;;;23.43;30.91;101366.38;6199502;23;20076;-61
2023/06/14 03:52:13;;;;;;;7.40;3.40;;;;;;;23.39;31.07;101366.16;6200546;23;20140;-58
2023/06/14 03:54:43;;;;;;;8.77;3.92;;;;;;;23.39;31.01;101363.41;6200617;23;20025;-62
2023/06/14 03:57:32;;;;;;;11.68;3.33;;;;;;;23.37;30.85;101368.38;6199135;23;20021;-62
2023/06/14 04:00:00;;;;;;;4.82;3.28;;;;;;;23.34;30.78;101363.47;6199580;23;20025;-62
2023/06/14 04:02:28;;;;;;;6.80;3.42;;;;;;;23.31;31.02;101362.13;6199847;23;20351;-62
2023/06/14 04:04:56;;;;;;;8.05;3.00;;;;;;;23.29;31.22;101364.34;6199791;23;20443;-62
2023/06/14 04:07:24;;;;;;;4.85;3.47;;;;;;;23.29;31.13;101369.03;6200216;23;20076;-62
2023/06/14 04:09:52;;;;;;;5.38;3.55;;;;;;;23.26;31.13;101367.69;6199253;23;20134;-62
2023/06/14 04:12:20;;;;;;;7.25;3.28;;;;;;;23.24;31.02;101372.66;6199597;23;20127;-62
2023/06/14 04:14:49;;;;;;;8.30;3.08;;;;;;;23.22;31.26;101371.31;6199269;23;20025;-62
2023/06/14 04:17:17;;;;;;;12.52;4.00;;;;;;;23.20;31.31;101379.84;6199675;23;20463;-61
2023/06/14 04:19:45;;;;;;;6.10;3.47;;;;;;;23.19;31.27;101380.13;6199646;23;20032;-62
2023/06/14 04:22:12;;;;;;;8.05;3.42;;;;;;;23.18;31.15;101381.25;6199628;23;20493;-63
2023/06/14 04:24:42;;;;;;;7.00;3.30;;;;;;;23.16;31.25;101384.28;6200054;23;20028;-62
2023/06/14 04:27:10;;;;;;;5.43;2.90;;;;;;;23.14;31.37;101383.75;6199325;23;20096;-62
2023/06/14 04:29:38;;;;;;;5.57;3.30;;;;;;;23.13;31.40;101384.84;6199003;23;20467;-62
2023/06/14 04:32:10;;;;;;;5.20;3.28;;;;;;;23.11;31.45;101386.25;6199967;23;20025;-62
2023/06/14 04:34:39;;;;;;;4.57;3.45;;;;;;;23.10;31.56;101379.97;6199750;23;20099;-62
2023/06/14 04:37:08;;;;;;;6.38;3.67;;;;;;;23.08;31.35;101387.66;6199797;23;20021;-62
2023/06/14 04:39:36;;;;;;;8.00;3.40;;;;;;;23.07;31.42;101386.03;6198982;23;20032;-60
2023/06/14 04:42:04;;;;;;;5.97;3.33;;;;;;;23.05;31.50;101385.50;6198580;23;20021;-62
2023/06/14 04:44:32;;;;;;;6.55;3.58;;;;;;;23.02;31.37;101392.38;6199083;23;20025;-61
2023/06/14 04:47:00;;;;;;;8.68;3.55;;;;;;;23.01;31.73;101388.00;6199454;23;20020;-61
2023/06/14 04:49:32;;;;;;;12.63;3.72;;;;;;;23.00;31.73;101396.53;6199325;23;20047;-61
2023/06/14 04:52:01;;;;;;;9.45;3.78;;;;;;;23.00;31.61;101393.78;6199767;23;20025;-58
2023/06/14 04:54:31;;;;;;;6.25;3.47;;;;;;;22.99;31.88;101395.72;6199850;23;20049;-62
2023/06/14 04:56:59;;;;;;;6.80;2.88;;;;;;;22.98;31.76;101394.09;6198930;23;20031;-63
2023/06/14 04:59:27;;;;;;;5.53;3.35;;;;;;;23.00;31.58;101400.09;6198946;23;20017;-60
2023/06/14 05:01:56;;;;;;;5.63;3.50;;;;;;;23.00;32.00;101394.59;6199473;23;20031;-63
2023/06/14 05:04:26;;;;;;;6.32;3.28;;;;;;;23.02;31.71;101397.88;6200069;23;20035;-62
2023/06/14 05:06:55;;;;;;;7.90;3.58;;;;;;;23.04;31.70;101398.41;6199155;23;20107;-61
2023/06/14 05:09:23;;;;;;;5.85;3.40;;;;;;;23.05;31.78;101396.47;6199092;23;20025;-64
2023/06/14 05:11:51;;;;;;;6.60;3.28;;;;;;;23.06;32.03;101395.38;6197955;23;20021;-61
2023/06/14 05:14:19;;;;;;;4.75;3.30;;;;;;;23.08;31.70;101403.28;6199691;23;20072;-62
2023/06/14 05:16:48;;;;;;;7.55;3.20;;;;;;;23.10;31.95;101401.09;6198897;23;20052;-62
2023/06/14 05:19:17;;;;;;;8.60;3.15;;;;;;;23.11;32.01;101409.00;6199334;23;20021;-61
2023/06/14 05:21:45;;;;;;;6.18;3.13;;;;;;;23.12;31.73;101412.56;6199363;23;20025;-61
2023/06/14 05:24:15;;;;;;;7.82;3.15;;;;;;;23.16;31.77;101408.13;6199082;23;20052;-63
2023/06/14 05:26:43;;;;;;;7.22;3.75;;;;;;;23.17;31.66;101412.50;6198900;23;20071;-62
2023/06/14 05:29:10;;;;;;;6.70;3.50;;;;;;;23.19;32.12;101407.56;6199508;23;20021;-62
2023/06/14 05:31:39;;;;;;;7.70;3.40;;;;;;;23.20;32.01;101412.75;6198656;23;20045;-62
2023/06/14 05:34:07;;;;;;;4.60;3.17;;;;;;;23.21;32.09;101406.16;6199431;23;20024;-59
2023/06/14 05:36:36;;;;;;;6.97;3.00;;;;;;;23.23;31.97;101409.41;6198530;23;20021;-61
2023/06/14 05:39:05;;;;;;;7.72;3.08;;;;;;;23.24;32.03;101415.72;6198833;23;20032;-62
2023/06/14 05:41:34;;;;;;;6.43;3.25;;;;;;;23.25;32.24;101417.34;6198177;23;20025;-62
2023/06/14 05:44:02;;;;;;;5.25;3.75;;;;;;;23.26;32.40;101425.28;6199163;23;20104;-63
2023/06/14 05:46:30;;;;;;;8.20;3.22;;;;;;;23.27;32.07;101426.91;6198765;23;20024;-62
2023/06/14 05:48:58;;;;;;;5.90;3.45;;;;;;;23.29;32.33;101421.97;6198362;23;20080;-61
2023/06/14 05:51:26;;;;;;;8.18;3.50;;;;;;;23.30;32.18;101425.53;6198719;23;20029;-61
2023/06/14 05:53:54;;;;;;;9.75;3.38;;;;;;;23.31;32.52;101427.97;6199177;23;20053;-62
2023/06/14 05:56:22;;;;;;;6.18;3.20;;;;;;;23.32;32.34;101417.81;6198706;23;20044;-61
2023/06/14 05:58:51;;;;;;;5.55;3.45;;;;;;;23.32;32.45;101429.59;6199013;23;20017;-63
2023/06/14 06:01:20;;;;;;;7.07;2.90;;;;;;;23.34;32.54;101435.59;6198015;23;20025;-61
2023/06/14 06:03:47;;;;;;;8.05;3.20;;;;;;;23.36;32.62;101435.31;6199157;23;20021;-62
2023/06/14 06:06:16;;;;;;;5.78;3.85;;;;;;;23.38;32.37;101430.34;6198653;23;20214;-62
2023/06/14 06:08:44;;;;;;;6.70;3.30;;;;;;;23.39;32.72;101440.22;6198944;23;20021;-61
2023/06/14 06:11:11;;;;;;;6.07;3.65;;;;;;;23.41;32.43;101434.44;6198120;23;20029;-61
2023/06/14 06:13:40;;;;;;;7.35;3.10;;;;;;;23.42;32.74;101439.63;6198942;23;20025;-63
2023/06/14 06:16:10;;;;;;;6.78;3.15;;;;;;;23.42;32.40;101438.81;6198504;23;20060;-62
2023/06/14 06:18:37;;;;;;;8.45;3.45;;;;;;;23.45;32.63;101439.03;6198536;23;20048;-63
2023/06/14 06:21:05;;;;;;;7.97;3.13;;;;;;;23.46;32.73;101442.59;6198529;23;20024;-61
2023/06/14 06:23:33;;;;;;;7.35;3.60;;;;;;;23.48;32.86;101445.88;6198920;23;20021;-62
2023/06/14 06:26:01;;;;;;;6.57;3.30;;;;;;;23.49;32.66;101451.06;6197709;23;20021;-60
2023/06/14 06:28:29;;;;;;;6.78;3.22;;;;;;;23.50;32.89;101458.19;6198218;23;20055;-62
2023/06/14 06:30:56;;;;;;;8.32;2.97;;;;;;;23.51;32.69;101454.34;6198133;23;20052;-61
2023/06/14 06:33:26;;;;;;;6.15;3.15;;;;;;;23.54;32.46;101458.44;6198711;23;20059;-62
2023/06/14 06:35:54;;;;;;;7.63;3.40;;;;;;;23.54;32.40;101452.97;6198836;23;20025;-61
2023/06/14 06:38:22;;;;;;;8.05;3.05;;;;;;;23.54;32.81;101456.53;6198761;23;20107;-61
2023/06/14 06:40:49;;;;;;;10.45;3.70;;;;;;;23.56;32.47;101457.03;6197354;23;20052;-61
2023/06/14 06:43:17;;;;;;;8.95;3.50;;;;;;;23.56;32.54;101475.44;6198740;23;20383;-62
2023/06/14 06:45:45;;;;;;;7.80;4.00;;;;;;;23.56;32.83;101462.53;6198421;23;20025;-63
2023/06/14 06:48:13;;;;;;;7.10;3.33;;;;;;;23.58;32.59;101471.28;6198756;23;20025;-60
2023/06/14 06:50:42;;;;;;;10.05;2.72;;;;;;;23.59;32.60;101483.09;6198614;23;20024;-62
2023/06/14 06:53:10;;;;;;;10.27;3.90;;;;;;;23.60;32.83;101479.22;6198892;23;20091;-62
2023/06/14 06:55:38;;;;;;;7.25;2.95;;;;;;;23.61;32.82;101484.41;6198980;23;20056;-61
2023/06/14 06:58:06;;;;;;;4.80;2.80;;;;;;;23.63;33.03;101481.38;6198148;23;20025;-63
2023/06/14 07:00:34;;;;;;;9.63;3.20;;;;;;;23.64;32.97;101485.75;6199213;23;20035;-62
2023/06/14 07:03:03;;;;;;;6.50;3.20;;;;;;;23.65;32.66;101481.91;6200315;23;20029;-62
2023/06/14 07:05:32;;;;;;;8.30;3.47;;;;;;;23.64;32.92;101485.75;6200735;23;20052;-61
2023/06/14 07:08:01;;;;;;;10.70;3.92;;;;;;;23.66;32.72;101486.28;6200591;23;20080;-62
2023/06/14 07:10:29;;;;;;;12.80;3.63;;;;;;;23.65;32.79;101479.97;6199945;23;20017;-62
2023/06/14 07:12:57;;;;;;;9.77;3.72;;;;;;;23.66;32.77;101486.28;6199677;23;20032;-61
2023/06/14 07:15:24;;;;;;;8.15;2.92;;;;;;;23.66;32.90;101486.28;6200082;23;20048;-61
2023/06/14 07:17:52;;;;;;;11.20;3.30;;;;;;;23.66;32.73;101494.53;6200161;23;20048;-63
2023/06/14 07:20:21;;;;;;;6.28;2.90;;;;;;;23.65;32.85;101490.97;6200223;23;20021;-61
2023/06/14 07:22:49;;;;;;;8.77;3.58;;;;;;;23.66;33.01;101497.25;6200373;23;20025;-61
2023/06/14 07:25:19;;;;;;;8.05;3.40;;;;;;;23.66;33.17;101495.34;6200552;23;20032;-61
2023/06/14 07:27:47;;;;;;;7.43;3.28;;;;;;;23.67;32.90;101499.72;6199708;23;20049;-58
2023/06/14 07:30:15;;;;;;;9.10;3.58;;;;;;;23.69;32.89;101502.97;6199856;23;20025;-61
2023/06/14 07:32:43;;;;;;;6.63;3.67;;;;;;;23.69;32.92;101505.72;6200291;23;20025;-61
2023/06/14 07:35:11;;;;;;;5.75;3.00;;;;;;;23.72;32.64;101506.25;6200096;23;20021;-62
2023/06/14 07:37:39;;;;;;;10.75;3.03;;;;;;;23.72;32.75;101509.81;6200219;23;20025;-61
2023/06/14 07:40:10;;;;;;;4.78;2.80;;;;;;;23.73;32.54;101516.13;6199572;23;20045;-62
2023/06/14 07:42:39;;;;;;;6.65;2.80;;;;;;;23.73;32.87;101514.19;6199152;23;20477;-61
2023/06/14 07:45:08;;;;;;;6.97;2.83;;;;;;;23.74;32.80;101525.97;6199798;23;20025;-61
2023/06/14 07:47:35;;;;;;;5.15;2.80;;;;;;;23.74;32.53;101513.09;6199757;23;20458;-62
2023/06/14 07:50:04;;;;;;;9.52;3.42;;;;;;;23.76;32.91;101512.78;6199979;23;20079;-62
2023/06/14 07:52:32;;;;;;;5.85;2.80;;;;;;;23.77;32.41;101522.66;6199698;23;20096;-62
2023/06/14 07:55:00;;;;;;;7.07;2.70;;;;;;;23.78;33.09;101519.63;6200261;23;20017;-60
2023/06/14 07:57:28;;;;;;;4.72;2.80;;;;;;;23.79;32.63;101518.50;6199481;23;20029;-60
2023/06/14 07:59:57;;;;;;;6.53;2.97;;;;;;;23.80;32.61;101524.81;6199507;23;20017;-62
2023/06/14 08:02:25;;;;;;;6.07;2.88;;;;;;;23.80;32.70;101531.13;6200116;23;20025;-60
2023/06/14 08:04:54;;;;;;;9.52;3.78;;;;;;;23.81;32.67;101532.75;6199978;23;20466;-61
2023/06/14 08:07:21;;;;;;;7.70;2.88;;;;;;;23.82;32.89;101534.38;6199955;23;20079;-61
2023/06/14 08:09:49;;;;;;;7.72;2.85;;;;;;;23.83;33.17;101537.94;6199671;23;20025;-62
2023/06/14 08:12:17;;;;;;;6.75;3.00;;;;;;;23.85;32.68;101543.97;6198533;23;20451;-63
2023/06/14 08:14:45;;;;;;;5.13;2.92;;;;;;;23.86;32.80;101540.94;6199726;23;20025;-61
2023/06/14 08:17:14;;;;;;;9.15;2.78;;;;;;;23.87;33.00;101531.56;6200009;23;20025;-64
2023/06/14 08:19:41;;;;;;;8.40;3.13;;;;;;;23.90;32.66;101535.66;6199489;23;20028;-61
2023/06/14 08:22:11;;;;;;;7.10;2.90;;;;;;;23.90;33.11;101539.22;6200213;23;20025;-62
2023/06/14 08:24:40;;;;;;;4.88;2.83;;;;;;;23.92;33.04;101527.94;6199782;23;20523;-61
2023/06/14 08:27:08;;;;;;;5.93;2.80;;;;;;;23.95;32.77;101538.34;6199608;23;20028;-62
2023/06/14 08:29:38;;;;;;;4.78;2.80;;;;;;;23.94;32.68;101528.47;6199221;23;20029;-60
2023/06/14 08:32:06;;;;;;;4.95;2.53;;;;;;;23.95;32.93;101527.34;6199908;23;20052;-62
2023/06/14 08:34:35;;;;;;;7.00;3.00;;;;;;;23.96;33.03;101523.50;6199975;23;20459;-62
2023/06/14 08:37:03;;;;;;;7.63;2.83;;;;;;;23.96;32.56;101531.75;6199615;23;20358;-62
2023/06/14 08:39:31;;;;;;;5.75;2.47;;;;;;;23.97;32.52;101533.38;6199161;23;20029;-61
2023/06/14 08:41:59;;;;;;;5.60;2.60;;;;;;;23.98;33.06;101533.06;6198513;23;20432;-61
2023/06/14 08:44:27;;;;;;;3.30;2.22;;;;;;;24.01;33.07;101543.47;6199906;23;20024;-61
2023/06/14 08:46:57;;;;;;;5.68;2.30;;;;;;;24.06;32.59;101528.03;6199094;23;20024;-62
2023/06/14 08:49:26;;;;;;;5.95;2.70;;;;;;;24.08;32.91;101528.56;6200103;23;20027;-60
2023/06/14 08:51:59;;;;;;;6.70;2.42;;;;;;;24.10;32.74;101535.38;6199394;23;20040;-63
2023/06/14 08:54:30;;;;;;;6.18;2.30;;;;;;;24.12;32.64;101529.59;6199904;23;20025;-63
2023/06/14 08:56:58;;;;;;;9.13;2.60;;;;;;;24.12;32.75;101526.84;6199083;23;20025;-61
2023/06/14 08:59:27;;;;;;;4.63;2.50;;;;;;;24.13;32.87;101525.75;6199656;23;20024;-61
2023/06/14 09:01:55;;;;;;;4.50;2.55;;;;;;;24.14;32.62;101524.63;6198551;23;20025;-61
2023/06/14 09:04:39;;;;;;;6.30;2.40;;;;;;;24.15;32.34;101532.56;6199149;23;20049;-58
2023/06/14 09:07:09;;;;;;;6.20;2.00;;;;;;;24.17;32.68;101533.09;6199524;23;20025;-62
2023/06/14 09:09:40;;;;;;;4.20;2.78;;;;;;;24.20;32.56;101531.69;6199314;23;20052;-62
2023/06/14 09:12:14;;;;;;;4.00;2.45;;;;;;;24.23;32.66;101531.91;6198932;23;20025;-58
2023/06/14 09:14:42;;;;;;;4.93;2.13;;;;;;;24.28;32.24;101528.28;6198642;23;20031;-61
2023/06/14 09:17:14;;;;;;;5.43;2.05;;;;;;;24.31;32.57;101530.44;6199105;23;20025;-62
2023/06/14 09:19:42;;;;;;;5.22;2.72;;;;;;;24.33;32.42;101525.44;6198963;23;20052;-61
2023/06/14 09:22:12;;;;;;;6.88;2.53;;;;;;;24.33;32.41;101525.44;6199190;23;20071;-62
2023/06/14 09:24:42;;;;;;;2.78;1.83;;;;;;;24.37;32.27;101528.41;6198966;23;20025;-62
2023/06/14 09:27:16;;;;;;;4.85;2.20;;;;;;;24.41;32.52;101524.78;6198330;23;20031;-62
2023/06/14 09:29:44;;;;;;;4.38;2.67;;;;;;;24.44;32.24;101531.59;6199081;23;20032;-60
2023/06/14 09:32:12;;;;;;;3.03;1.98;;;;;;;24.43;31.99;101530.78;6198902;23;20024;-63
2023/06/14 09:34:40;;;;;;;3.85;2.42;;;;;;;24.45;31.99;101534.06;6199112;23;20052;-63
2023/06/14 09:37:08;;;;;;;2.75;1.90;;;;;;;24.45;32.26;101536.00;6198562;23;20021;-60
2023/06/14 09:39:50;;;;;;;4.15;1.80;;;;;;;24.45;31.71;101531.31;6198132;23;20025;-55
2023/06/14 09:42:19;;;;;;;8.35;2.25;;;;;;;24.48;31.51;101536.22;6198724;23;20030;-62
2023/06/14 09:44:49;;;;;;;3.70;2.05;;;;;;;24.50;31.50;101536.72;6198821;23;20094;-61
2023/06/14 09:47:17;;;;;;;5.00;2.20;;;;;;;24.51;31.34;101543.03;6199130;23;20088;-62
2023/06/14 09:49:45;;;;;;;5.32;1.75;;;;;;;24.54;31.35;101532.25;6198248;23;20021;-61
2023/06/14 09:52:16;;;;;;;2.92;1.50;;;;;;;24.54;31.13;101543.25;6199251;23;20021;-62
2023/06/14 09:54:47;;;;;;;3.67;2.03;;;;;;;24.57;31.00;101539.91;6199119;23;20403;-61
2023/06/14 09:57:16;;;;;;;2.78;1.60;;;;;;;24.62;30.77;101542.56;6198262;23;20072;-61
2023/06/14 09:59:45;;;;;;;5.85;1.90;;;;;;;24.65;30.85;101535.66;6198451;23;20029;-61
2023/06/14 10:02:22;;;;;;;2.60;1.60;;;;;;;24.69;30.81;101541.38;6199076;23;20021;-62
2023/06/14 10:05:00;;;;;;;5.30;1.70;;;;;;;24.72;30.78;101538.84;6199082;23;20101;-62
2023/06/14 10:07:32;;;;;;;2.90;1.50;;;;;;;24.72;30.43;101532.53;6198646;23;20056;-61
2023/06/14 10:10:02;;;;;;;3.22;1.50;;;;;;;24.70;30.21;101530.09;6198677;23;20025;-62
2023/06/14 10:12:31;;;;;;;2.80;1.70;;;;;;;24.68;29.86;101532.31;6198481;23;20025;-62
2023/06/14 10:15:01;;;;;;;5.88;1.50;;;;;;;24.65;29.58;101532.91;6198238;23;20033;-61
2023/06/14 10:17:36;;;;;;;2.80;1.50;;;;;;;24.62;29.41;101526.09;6198787;23;20464;-61
2023/06/14 10:20:22;;;;;;;2.25;1.48;;;;;;;24.61;29.04;101521.72;6198732;23;20025;-61
2023/06/14 10:22:55;;;;;;;4.35;1.58;;;;;;;24.62;29.25;101528.03;6198823;23;20021;-62
2023/06/14 10:25:32;;;;;;;3.72;1.35;;;;;;;24.64;28.96;101512.84;6198713;23;20056;-62
2023/06/14 10:28:19;;;;;;;3.42;1.70;;;;;;;24.68;29.29;101521.31;6198242;23;20032;-62
2023/06/14 10:31:07;;;;;;;4.18;1.40;;;;;;;24.79;29.26;101531.03;6197349;23;20025;-61
2023/06/14 10:33:35;;;;;;;3.30;1.60;;;;;;;24.85;29.31;101527.09;6198603;23;20032;-61
2023/06/14 10:36:26;;;;;;;4.47;1.50;;;;;;;24.89;29.36;101527.28;6201304;23;20016;-62
2023/06/14 10:39:02;;;;;;;1.60;1.20;;;;;;;24.96;29.59;101527.72;6199983;23;20059;-61
2023/06/14 10:41:31;;;;;;;;;;;;;;;25.03;29.26;101530.09;6201460;23;20123;-62
2023/06/14 10:44:39;;;;;;;2.22;1.33;;;;;;;25.11;29.11;101530.22;6201601;23;19924;-62
2023/06/14 10:47:12;;;;;;;4.10;1.38;;;;;;;25.16;29.61;101523.81;6201438;23;20025;-63
2023/06/14 10:49:43;;;;;;;3.88;1.60;;;;;;;25.13;29.17;101528.00;6201584;23;20021;-61
2023/06/14 10:52:16;;;;;;;4.50;1.67;;;;;;;25.19;29.41;101536.97;6201952;23;20052;-61
2023/06/14 10:55:15;;;;;;;4.63;1.40;;;;;;;25.20;29.49;101531.16;6201932;23;20025;-62
2023/06/14 10:57:50;;;;;;;1.98;1.35;;;;;;;25.22;29.65;101545.44;6052269;23;20035;-62
2023/06/14 11:00:23;;;;;;;2.40;1.52;;;;;;;25.24;29.14;101534.94;6052158;23;20043;-61
2023/06/14 11:03:21;;;;;;;4.38;1.67;;;;;;;25.26;29.25;101531.88;6052509;23;20080;-62
2023/06/14 11:05:53;;;;;;;2.65;1.83;;;;;;;25.25;28.70;101535.75;6041375;23;20174;-61
2023/06/14 11:08:53;;;;;;;5.57;1.38;;;;;;;25.24;29.10;101531.38;6052630;23;20027;-61
2023/06/14 11:11:23;;;;;;;5.22;1.90;;;;;;;25.22;28.89;101528.94;6050987;23;20051;-62
2023/06/14 11:13:53;;;;;;;1.77;1.60;;;;;;;25.26;28.79;101540.13;6052872;23;20027;-62
2023/06/14 11:16:20;;;;;;;4.15;2.08;;;;;;;25.27;28.46;101523.31;6052227;23;20028;-61
2023/06/14 11:18:50;;;;;;;2.85;1.48;;;;;;;25.26;28.24;101538.19;6053143;23;20027;-62
2023/06/14 11:21:18;;;;;;;3.97;1.77;;;;;;;25.28;28.02;101526.91;6052404;23;20023;-61
2023/06/14 11:23:55;;;;;;;4.50;1.35;;;;;;;25.30;28.15;101519.97;6052919;23;20031;-61
2023/06/14 11:26:27;;;;;;;3.15;1.50;;;;;;;25.36;28.35;101520.69;6052222;23;20433;-62
2023/06/14 11:29:00;;;;;;;3.95;1.75;;;;;;;25.45;28.71;101524.34;6052871;23;20023;-61
2023/06/14 11:31:29;;;;;;;7.32;1.83;;;;;;;25.51;28.79;101530.56;6098447;23;20017;-61
2023/06/14 11:33:58;;;;;;;3.00;1.60;;;;;;;25.53;28.50;101514.56;6201902;23;20048;-61
2023/06/14 11:36:29;;;;;;;4.85;1.85;;;;;;;25.53;27.78;101520.91;6201726;23;20021;-62